»·PEaware :: SKW7002 KEGE-KSLC

SKW7002 :: KEGE-KSLC

FLIGHT INFORMATION

Flight Status: Arrived
Operator:
SkyWest Airlines
More flights by this operator :: More flights under this callsign
Pilot: Jack B. (5846)
Aircraft: CANADAIR CL-600 CRJ-200
(CRJ2)
More flights by this aircraft type
Origin: KEGE Eagle Co Regl
United States
Destination: KSLC Salt Lake City Intl
United States
More flights between these airports :: More routes between these airports
Route: EKR3 EKR LEEHY5
File this flight plan on PilotEdge
Remarks:
Altitude:
(Current/Filed)
300ft
Speed:
(Current/Filed)
320kts
Departed: 11-Jan-19 07:17 PM
Arrived: 11-Jan-19 08:06 PM
Distance/Time
Traveled:
242nm/0:49
Distance/Time
To Go:
Arrived

Flight Plot

Page will automatically refresh every two minutes.

Flight plan parsing failed; only flown route is shown


Map Options




Map Legend


Flown Route
Filed Route
Departure Airport
Arrival Airport
Navaid (VOR, NDB)
Fix

Horizontal Profiles

Position Reports

Time Latitude Longitude Heading Altitude Ground
Speed
11-Jan-19 19:04 39.640694 -106.916287 171 6497ft 0kts
11-Jan-19 19:05 39.640694 -106.916287 171 6497ft 0kts
11-Jan-19 19:06 39.640694 -106.916287 171 6497ft 0kts
11-Jan-19 19:07 39.640694 -106.916287 171 6497ft 0kts
11-Jan-19 19:08 39.640694 -106.916287 171 6497ft 0kts
11-Jan-19 19:09 39.640694 -106.916287 171 6497ft 0kts
11-Jan-19 19:10 39.640694 -106.916287 171 6497ft 0kts
11-Jan-19 19:11 39.640694 -106.916287 171 6497ft 0kts
11-Jan-19 19:12 39.640814 -106.916288 170 6497ft 0kts
11-Jan-19 19:13 39.640914 -106.916100 342 6498ft 5kts
11-Jan-19 19:14 39.642159 -106.912427 82 6509ft 21kts
11-Jan-19 19:15 39.643033 -106.904350 81 6532ft 28kts
11-Jan-19 19:16 39.643317 -106.912064 261 6506ft 109kts
11-Jan-19 19:17 39.628455 -106.967174 227 7402ft 192kts
11-Jan-19 19:18 39.616686 -107.028399 325 8918ft 208kts
11-Jan-19 19:19 39.668915 -107.046028 359 11078ft 193kts
11-Jan-19 19:20 39.723646 -107.070050 339 12605ft 225kts
11-Jan-19 19:21 39.782597 -107.109684 335 14066ft 253kts
11-Jan-19 19:22 39.829601 -107.183477 298 15345ft 292kts
11-Jan-19 19:23 39.862193 -107.280994 297 16982ft 296kts
11-Jan-19 19:24 39.894431 -107.380956 296 18214ft 309kts
11-Jan-19 19:25 39.927775 -107.485056 296 19547ft 313kts
11-Jan-19 19:26 39.961326 -107.590197 296 20736ft 317kts
11-Jan-19 19:27 39.995303 -107.697083 296 21823ft 321kts
11-Jan-19 19:28 40.029613 -107.805443 296 22810ft 325kts
11-Jan-19 19:29 40.064021 -107.915102 292 23705ft 330kts
11-Jan-19 19:30 40.072356 -108.037123 278 24495ft 340kts
11-Jan-19 19:31 40.078206 -108.160589 277 25239ft 343kts
11-Jan-19 19:32 40.083773 -108.285531 277 26007ft 347kts
11-Jan-19 19:33 40.089144 -108.411595 277 26704ft 350kts
11-Jan-19 19:34 40.094406 -108.538508 277 27346ft 352kts
11-Jan-19 19:35 40.099583 -108.666818 277 27955ft 354kts
11-Jan-19 19:36 40.104625 -108.795271 277 28512ft 356kts
11-Jan-19 19:37 40.109562 -108.924765 277 29024ft 358kts
11-Jan-19 19:38 40.114273 -109.053247 277 30003ft 344kts
11-Jan-19 19:39 40.119139 -109.179806 278 30066ft 357kts
11-Jan-19 19:40 40.123853 -109.312212 277 30065ft 372kts
11-Jan-19 19:41 40.128461 -109.448926 277 30065ft 384kts
11-Jan-19 19:42 40.133036 -109.590114 277 30064ft 395kts
11-Jan-19 19:43 40.137572 -109.735375 277 30064ft 404kts
11-Jan-19 19:44 40.142006 -109.883585 277 30063ft 413kts
11-Jan-19 19:45 40.146342 -110.034676 277 30020ft 421kts
11-Jan-19 19:46 40.148658 -110.193053 273 28666ft 451kts
11-Jan-19 19:47 40.147343 -110.356652 273 27156ft 447kts
11-Jan-19 19:48 40.145714 -110.520434 273 25629ft 459kts
11-Jan-19 19:49 40.143787 -110.688393 272 24033ft 464kts
11-Jan-19 19:50 40.141627 -110.855344 272 22426ft 453kts
11-Jan-19 19:51 40.139314 -111.016683 272 20881ft 437kts
11-Jan-19 19:52 40.137155 -111.172867 271 19377ft 428kts
11-Jan-19 19:53 40.134619 -111.326879 271 17921ft 420kts
11-Jan-19 19:54 40.131830 -111.478176 270 16518ft 415kts
11-Jan-19 19:55 40.154852 -111.615953 299 15989ft 383kts
11-Jan-19 19:56 40.215089 -111.731119 317 15395ft 385kts
11-Jan-19 19:57 40.286598 -111.826440 321 13566ft 355kts
11-Jan-19 19:58 40.364446 -111.906220 324 11780ft 359kts
11-Jan-19 19:59 40.456232 -111.940989 348 10953ft 333kts
11-Jan-19 20:00 40.540149 -111.946199 356 9673ft 279kts
11-Jan-19 20:01 40.611509 -111.954176 355 7804ft 237kts
11-Jan-19 20:02 40.670214 -111.960984 354 6385ft 181kts
11-Jan-19 20:03 40.714203 -111.966097 354 5447ft 154kts
11-Jan-19 20:04 40.756870 -111.971135 353 4615ft 157kts
11-Jan-19 20:05 40.791402 -111.975123 339 4221ft 37kts
11-Jan-19 20:06 40.791969 -111.979550 263 4223ft 21kts
11-Jan-19 20:07 40.788820 -111.982106 104 4224ft 8kts
11-Jan-19 20:08 40.788737 -111.981708 107 4224ft 0kts
11-Jan-19 20:09 40.788737 -111.981708 107 4224ft 0kts

Navigation Log

Ident Type
Flight plan parsing failed, navigation log unavailable